Novosibirsk, Russia
Current Conditions -  °F | °C
As of 10:00 PM on Thursday 18 Dec 2014 (Local Time) from UNNT Reporting Station
Light Snow Light Snow  
Wind Chill: -5°   Ceiling: 1400
Heat Index:   Visibility: 6mi
Dew Point:   Wind: 7mph
Humidity: 85%   Direction: 190°S
Pressure: 30.59"   Gusts: NA
Location:  55.04°N, 82.93°E
Report Text: UNNT 181500Z 19003MPS 9000 -SN OVC014 M14/M16 Q1036 2581016016810160 NOSIG RMK QFE767/1022
Loading
Personal Weather Stations






























Interactive Weather Map New forecast layout! Learn more

10-Day Weather Forecast

Advertisements
Track Severe Weather on mobile